South Bowie, Maryland
Current Conditions -  °F | °C
As of 5:24 AM on Thursday 29 Jan 2015 (Local Time) from KFME Reporting Station
Clear Clear  
Wind Chill: 14°   Ceiling: Unl
Heat Index: 14°   Visibility: 10mi
Dew Point: 12°   Wind: 0mph
Humidity: 93%   Direction: NA
Pressure: 30.36"   Gusts: NA
Location:  38.927°N, 76.7149°W
Report Text: KFME 291024Z AUTO 00000KT 10SM CLR M10/M11 A3036 RMK AO1
Loading
Personal Weather Stations






























Interactive Weather Map New forecast layout! Learn more

10-Day Weather Forecast

Advertisements
Track Severe Weather on mobile